Time;durP1;ratioP1;P1;durP2;ratioP2;P2;SDS_P1;SDS_P2;PMS_P1;PMS_P2;Temp;Humidity;BMP_temperature;BMP_pressure;BME280_temperature;BME280_humidity;BME280_pressure;Samples;Min_cycle;Max_cycle;Signal;HPM_P1;HPM_P2
2023/01/02 00:02:36;;;;;;;315.90;161.02;;;;;;;;;;5080469;28;20045;-86
2023/01/02 00:05:22;;;;;;;303.02;157.27;;;;;;;;;;5084911;28;20045;-83
2023/01/02 00:08:08;;;;;;;314.60;158.02;;;;;;;;;;5066859;28;20049;-84
2023/01/02 00:10:53;;;;;;;293.10;149.30;;;;;;;;;;5064340;28;20045;-81
2023/01/02 00:13:41;;;;;;;283.08;137.88;;;;;;;;;;5065371;28;20040;-83
2023/01/02 00:16:26;;;;;;;334.05;164.13;;;;;;;;;;5063004;28;20033;-85
2023/01/02 00:19:12;;;;;;;344.48;169.35;;;;;;;;;;5057805;28;20048;-86
2023/01/02 00:22:01;;;;;;;334.52;168.68;;;;;;;;;;5061985;28;20053;-86
2023/01/02 00:24:46;;;;;;;330.30;171.90;;;;;;;;;;5080505;28;20040;-83
2023/01/02 00:27:31;;;;;;;333.05;170.88;;;;;;;;;;5062915;28;20490;-86
2023/01/02 00:30:17;;;;;;;350.08;180.80;;;;;;;;;;5061852;28;20041;-83
2023/01/02 00:33:03;;;;;;;333.05;170.43;;;;;;;;;;5065898;28;20045;-83
2023/01/02 00:35:48;;;;;;;337.52;170.77;;;;;;;;;;5063252;28;20045;-86
2023/01/02 00:38:36;;;;;;;310.88;160.27;;;;;;;;;;5078587;28;20066;-85
2023/01/02 00:41:21;;;;;;;316.27;160.20;;;;;;;;;;5059289;28;20033;-87
2023/01/02 00:44:07;;;;;;;314.58;155.43;;;;;;;;;;5059895;28;20045;-82
2023/01/02 00:46:52;;;;;;;302.17;157.45;;;;;;;;;;5084224;28;20052;-85
2023/01/02 00:49:38;;;;;;;307.02;156.73;;;;;;;;;;5051594;28;20057;-80
2023/01/02 00:52:24;;;;;;;277.60;132.40;;;;;;;;;;5057869;28;20376;-80
2023/01/02 00:55:09;;;;;;;372.73;200.27;;;;;;;;;;5052617;28;20047;-81
2023/01/02 00:57:55;;;;;;;234.85;117.38;;;;;;;;;;5052786;28;20486;-82
2023/01/02 01:00:40;;;;;;;216.52;108.57;;;;;;;;;;5059543;28;20041;-85
2023/01/02 01:03:26;;;;;;;221.20;108.30;;;;;;;;;;5053315;28;20045;-85
2023/01/02 01:06:13;;;;;;;220.00;107.72;;;;;;;;;;5066874;28;20049;-81
2023/01/02 01:08:58;;;;;;;208.48;106.45;;;;;;;;;;5053708;28;20376;-81
2023/01/02 01:11:45;;;;;;;207.65;104.78;;;;;;;;;;5073218;28;20041;-81
2023/01/02 01:14:31;;;;;;;207.05;105.07;;;;;;;;;;5053371;28;20041;-84
2023/01/02 01:17:16;;;;;;;225.52;112.82;;;;;;;;;;5066814;28;20048;-81
2023/01/02 01:20:02;;;;;;;235.70;123.90;;;;;;;;;;5063737;28;20041;-81
2023/01/02 01:22:48;;;;;;;284.27;133.80;;;;;;;;;;5060745;28;20052;-84
2023/01/02 01:25:39;;;;;;;219.27;109.65;;;;;;;;;;5062102;28;20029;-84
2023/01/02 01:28:24;;;;;;;243.10;119.35;;;;;;;;;;5070474;28;20490;-83
2023/01/02 01:31:23;;;;;;;244.30;118.43;;;;;;;;;;5059265;28;20402;-85
2023/01/02 01:34:12;;;;;;;226.55;107.20;;;;;;;;;;5058567;28;20406;-87
2023/01/02 01:36:58;;;;;;;211.18;97.90;;;;;;;;;;5059008;28;20060;-86
2023/01/02 01:39:44;;;;;;;214.45;93.88;;;;;;;;;;5070900;28;20045;-84
2023/01/02 01:42:35;;;;;;;224.60;104.78;;;;;;;;;;5057247;28;20044;-82
2023/01/02 01:45:22;;;;;;;308.92;142.45;;;;;;;;;;5061275;28;20040;-83
2023/01/02 01:48:13;;;;;;;284.73;131.73;;;;;;;;;;5064009;28;20041;-83
2023/01/02 01:50:59;;;;;;;347.45;156.95;;;;;;;;;;5060846;28;20502;-86
2023/01/02 01:53:48;;;;;;;283.05;129.25;;;;;;;;;;5076321;28;20045;-86
2023/01/02 01:56:39;;;;;;;240.25;105.82;;;;;;;;;;5069493;28;20045;-83
2023/01/02 01:59:25;;;;;;;279.67;116.53;;;;;;;;;;5076545;28;20044;-83
2023/01/02 02:02:18;;;;;;;276.85;120.47;;;;;;;;;;5056618;28;20359;-85
2023/01/02 02:05:05;;;;;;;320.50;120.47;;;;;;;;;;5055802;28;20041;-85
2023/01/02 02:08:07;;;;;;;254.32;106.38;;;;;;;;;;5062208;28;20040;-86
2023/01/02 02:10:57;;;;;;;195.32;79.50;;;;;;;;;;5056168;28;20045;-86
2023/01/02 02:13:46;;;;;;;184.32;73.22;;;;;;;;;;5056260;28;20040;-85
2023/01/02 02:16:40;;;;;;;156.27;63.42;;;;;;;;;;5055208;28;20049;-85
2023/01/02 02:19:32;;;;;;;180.23;70.78;;;;;;;;;;5056520;28;20044;-86
2023/01/02 02:22:30;;;;;;;178.95;69.50;;;;;;;;;;5083395;28;20040;-89
2023/01/02 02:25:47;;;;;;;172.70;65.30;;;;;;;;;;5079403;28;20045;-87
2023/01/02 02:29:09;;;;;;;172.48;63.55;;;;;;;;;;5056116;28;20045;-88
2023/01/02 02:32:21;;;;;;;187.45;72.22;;;;;;;;;;5056048;28;20045;-85
2023/01/02 02:35:48;;;;;;;230.05;74.03;;;;;;;;;;5075837;28;20045;-88
2023/01/02 02:39:03;;;;;;;268.17;82.88;;;;;;;;;;5055883;28;20045;-84
2023/01/02 02:41:57;;;;;;;233.82;80.85;;;;;;;;;;5056056;28;20504;-85
2023/01/02 02:44:56;;;;;;;307.30;97.68;;;;;;;;;;5068923;28;20478;-85
2023/01/02 02:47:55;;;;;;;294.73;94.45;;;;;;;;;;5070145;28;20049;-85
2023/01/02 02:51:06;;;;;;;297.77;95.18;;;;;;;;;;5055930;28;20486;-84
2023/01/02 02:53:59;;;;;;;342.65;107.45;;;;;;;;;;5068856;28;20049;-85
2023/01/02 02:56:45;;;;;;;360.45;115.20;;;;;;;;;;5068496;28;20053;-85
2023/01/02 02:59:33;;;;;;;405.90;119.03;;;;;;;;;;5055630;28;20041;-85
2023/01/02 03:02:19;;;;;;;386.17;121.22;;;;;;;;;;5057220;28;20386;-84
2023/01/02 03:05:09;;;;;;;319.33;123.78;;;;;;;;;;5055480;28;20041;-84
2023/01/02 03:08:05;;;;;;;359.52;129.57;;;;;;;;;;5055482;28;20402;-85
2023/01/02 03:10:59;;;;;;;369.17;148.88;;;;;;;;;;5055532;28;20041;-85
2023/01/02 03:14:06;;;;;;;401.70;153.38;;;;;;;;;;5055402;28;20050;-85
2023/01/02 03:17:01;;;;;;;383.48;147.30;;;;;;;;;;5058116;28;20041;-88
2023/01/02 03:19:51;;;;;;;400.77;157.20;;;;;;;;;;5056145;28;20045;-88
2023/01/02 03:22:39;;;;;;;376.92;154.93;;;;;;;;;;5055403;28;20048;-87
2023/01/02 03:25:25;;;;;;;371.00;159.93;;;;;;;;;;5048635;28;20033;-85
2023/01/02 03:28:15;;;;;;;354.90;144.77;;;;;;;;;;5075083;28;20037;-85
2023/01/02 03:31:02;;;;;;;338.48;137.57;;;;;;;;;;5056293;28;20482;-87
2023/01/02 03:33:57;;;;;;;349.25;142.15;;;;;;;;;;5075177;28;20037;-84
2023/01/02 03:36:49;;;;;;;378.73;143.50;;;;;;;;;;5058799;28;20045;-88
2023/01/02 03:39:40;;;;;;;417.80;145.38;;;;;;;;;;5075303;28;20045;-88
2023/01/02 03:42:33;;;;;;;373.48;141.10;;;;;;;;;;5055571;28;20394;-85
2023/01/02 03:45:29;;;;;;;373.55;140.63;;;;;;;;;;5068060;28;20033;-85
2023/01/02 03:48:44;;;;;;;368.33;141.00;;;;;;;;;;5054537;28;20041;-85
2023/01/02 03:51:31;;;;;;;364.85;143.55;;;;;;;;;;5076519;28;20040;-86
2023/01/02 03:54:18;;;;;;;376.83;150.20;;;;;;;;;;5058022;28;20041;-85
2023/01/02 03:57:15;;;;;;;405.50;153.18;;;;;;;;;;5054823;28;20048;-82
2023/01/02 04:00:11;;;;;;;307.30;139.65;;;;;;;;;;5054544;28;20037;-86
2023/01/02 04:03:11;;;;;;;365.02;141.95;;;;;;;;;;5066837;28;20041;-82
2023/01/02 04:06:08;;;;;;;277.83;110.13;;;;;;;;;;5074746;28;20044;-82
2023/01/02 04:09:17;;;;;;;251.77;94.22;;;;;;;;;;5054072;28;20037;-82
2023/01/02 04:12:09;;;;;;;273.73;94.03;;;;;;;;;;5056960;28;20041;-87
2023/01/02 04:15:16;;;;;;;262.17;89.70;;;;;;;;;;5076109;28;20045;-87
2023/01/02 04:18:13;;;;;;;324.45;122.75;;;;;;;;;;5057369;28;20041;-88
2023/01/02 04:21:10;;;;;;;267.77;110.22;;;;;;;;;;5061469;28;20049;-84
2023/01/02 04:24:23;;;;;;;218.27;71.38;;;;;;;;;;5055478;28;20049;-88
2023/01/02 04:27:13;;;;;;;224.52;71.70;;;;;;;;;;5073715;28;20041;-81
2023/01/02 04:29:59;;;;;;;214.90;88.75;;;;;;;;;;5059765;28;20044;-82
2023/01/02 04:32:46;;;;;;;273.60;100.22;;;;;;;;;;5074885;28;20040;-87
2023/01/02 04:35:33;;;;;;;276.10;102.50;;;;;;;;;;5074576;28;20041;-87
2023/01/02 04:38:19;;;;;;;293.27;99.78;;;;;;;;;;5054087;28;20036;-82
2023/01/02 04:41:05;;;;;;;244.35;101.18;;;;;;;;;;5053851;28;20049;-85
2023/01/02 04:44:00;;;;;;;242.93;100.15;;;;;;;;;;5053664;28;20417;-85
2023/01/02 04:46:45;;;;;;;284.33;118.10;;;;;;;;;;5053960;28;20037;-81
2023/01/02 04:49:31;;;;;;;250.20;119.97;;;;;;;;;;5053764;28;20033;-84
2023/01/02 04:52:17;;;;;;;282.88;131.35;;;;;;;;;;5053192;28;20049;-81
2023/01/02 04:55:02;;;;;;;359.20;138.02;;;;;;;;;;5053435;28;20056;-83
2023/01/02 04:57:48;;;;;;;355.95;140.90;;;;;;;;;;5053517;28;20053;-84
2023/01/02 05:00:34;;;;;;;348.83;144.13;;;;;;;;;;5053518;28;20041;-87
2023/01/02 05:03:19;;;;;;;392.23;153.88;;;;;;;;;;5053893;28;20049;-87
2023/01/02 05:06:05;;;;;;;415.30;155.52;;;;;;;;;;5053450;28;20040;-87
2023/01/02 05:08:50;;;;;;;382.52;152.57;;;;;;;;;;5053822;28;20482;-87
2023/01/02 05:11:36;;;;;;;367.58;146.85;;;;;;;;;;5073132;28;20041;-84
2023/01/02 05:14:22;;;;;;;320.65;139.77;;;;;;;;;;5052668;28;20040;-84
2023/01/02 05:17:07;;;;;;;312.60;135.60;;;;;;;;;;5053376;28;20042;-84
2023/01/02 05:19:52;;;;;;;339.13;138.20;;;;;;;;;;5053168;28;20045;-84
2023/01/02 05:25:42;;;;;;;292.40;134.00;;;;;;;;;;5053379;28;20367;-84
2023/01/02 05:28:28;;;;;;;251.73;123.07;;;;;;;;;;5072987;28;20045;-84
2023/01/02 05:31:14;;;;;;;255.88;122.78;;;;;;;;;;5053289;28;20049;-87
2023/01/02 05:33:59;;;;;;;255.68;120.63;;;;;;;;;;5053442;28;20037;-83
2023/01/02 05:36:45;;;;;;;258.00;129.55;;;;;;;;;;5059627;28;20037;-88
2023/01/02 05:39:29;;;;;;;268.65;115.40;;;;;;;;;;5074183;28;20490;-85
2023/01/02 05:42:15;;;;;;;210.77;97.55;;;;;;;;;;5054928;28;20041;-85
2023/01/02 05:45:01;;;;;;;214.93;100.30;;;;;;;;;;5054281;28;20029;-82
2023/01/02 05:47:46;;;;;;;186.05;92.22;;;;;;;;;;5053299;28;20049;-87
2023/01/02 05:50:32;;;;;;;204.25;98.25;;;;;;;;;;5068830;28;20044;-84
2023/01/02 05:53:17;;;;;;;264.40;105.90;;;;;;;;;;5068425;28;20040;-87
2023/01/02 05:56:07;;;;;;;210.32;99.00;;;;;;;;;;5052819;28;20052;-84
2023/01/02 05:58:53;;;;;;;220.07;102.95;;;;;;;;;;5073245;28;20402;-84
2023/01/02 06:01:38;;;;;;;257.58;104.32;;;;;;;;;;5053157;28;20045;-84
2023/01/02 06:04:24;;;;;;;236.90;105.10;;;;;;;;;;5055150;28;20040;-84
2023/01/02 06:07:10;;;;;;;224.77;108.07;;;;;;;;;;5056926;28;20371;-82
2023/01/02 06:09:55;;;;;;;261.33;108.95;;;;;;;;;;5056449;28;20482;-83
2023/01/02 06:12:40;;;;;;;276.92;118.80;;;;;;;;;;5056828;28;20470;-87
2023/01/02 06:15:26;;;;;;;275.73;113.38;;;;;;;;;;5062452;28;20041;-84
2023/01/02 06:18:11;;;;;;;304.80;116.72;;;;;;;;;;5056551;28;20037;-84
2023/01/02 06:21:01;;;;;;;272.83;112.68;;;;;;;;;;5069240;28;20372;-84
2023/01/02 06:23:47;;;;;;;290.73;121.25;;;;;;;;;;5067584;28;20045;-88
2023/01/02 06:26:33;;;;;;;288.25;111.07;;;;;;;;;;5059804;28;20033;-85
2023/01/02 06:29:18;;;;;;;236.45;101.35;;;;;;;;;;5056571;28;20363;-85
2023/01/02 06:32:04;;;;;;;213.25;87.45;;;;;;;;;;5056106;28;20036;-84
2023/01/02 06:34:49;;;;;;;244.50;92.63;;;;;;;;;;5055948;28;20044;-84
2023/01/02 06:37:35;;;;;;;236.02;99.13;;;;;;;;;;5055060;28;20040;-85
2023/01/02 06:40:21;;;;;;;235.65;99.97;;;;;;;;;;5086439;28;20386;-86
2023/01/02 06:43:06;;;;;;;206.57;93.60;;;;;;;;;;5074309;28;20049;-87
2023/01/02 06:45:52;;;;;;;228.80;96.63;;;;;;;;;;5081787;28;20041;-84
2023/01/02 06:48:38;;;;;;;215.00;95.53;;;;;;;;;;5055667;28;20076;-85
2023/01/02 06:51:23;;;;;;;231.48;96.30;;;;;;;;;;5057606;28;20041;-88
2023/01/02 06:54:08;;;;;;;236.27;103.15;;;;;;;;;;5057144;28;20049;-86
2023/01/02 06:56:54;;;;;;;271.50;107.90;;;;;;;;;;5056034;28;20045;-84
2023/01/02 06:59:39;;;;;;;250.07;95.65;;;;;;;;;;5075618;28;20049;-85
2023/01/02 07:02:25;;;;;;;271.77;97.45;;;;;;;;;;5065952;28;20041;-87
2023/01/02 07:05:11;;;;;;;256.23;98.22;;;;;;;;;;5053489;28;20041;-86
2023/01/02 07:07:56;;;;;;;238.25;91.28;;;;;;;;;;5074937;28;20390;-85
2023/01/02 07:10:42;;;;;;;287.30;95.93;;;;;;;;;;5066366;28;20040;-86
2023/01/02 07:13:27;;;;;;;276.52;98.70;;;;;;;;;;5079154;28;20045;-86
2023/01/02 07:16:14;;;;;;;245.48;88.18;;;;;;;;;;5061371;28;20426;-84
2023/01/02 07:19:00;;;;;;;247.25;95.70;;;;;;;;;;5055600;28;20053;-84
2023/01/02 07:21:45;;;;;;;219.05;96.75;;;;;;;;;;5056710;28;20053;-84
2023/01/02 07:24:31;;;;;;;344.90;121.90;;;;;;;;;;5055373;28;20037;-84
2023/01/02 07:27:16;;;;;;;298.27;113.90;;;;;;;;;;5059446;28;20041;-84
2023/01/02 07:30:02;;;;;;;300.42;114.65;;;;;;;;;;5070421;28;20049;-86
2023/01/02 07:32:47;;;;;;;313.77;115.03;;;;;;;;;;5056669;28;20045;-85
2023/01/02 07:35:33;;;;;;;287.67;113.45;;;;;;;;;;5055209;28;20037;-85
2023/01/02 07:38:18;;;;;;;305.75;118.10;;;;;;;;;;5053568;28;20044;-84
2023/01/02 07:41:12;;;;;;;334.65;129.30;;;;;;;;;;5054888;28;20044;-84
2023/01/02 07:43:57;;;;;;;255.88;103.47;;;;;;;;;;5054726;28;20052;-84
2023/01/02 07:46:43;;;;;;;295.30;108.13;;;;;;;;;;5054910;28;20033;-88
2023/01/02 07:49:28;;;;;;;314.27;112.47;;;;;;;;;;5060937;28;20049;-89
2023/01/02 07:52:14;;;;;;;262.30;101.13;;;;;;;;;;5054448;28;20052;-85
2023/01/02 07:54:59;;;;;;;272.35;105.00;;;;;;;;;;5054313;28;20041;-85
2023/01/02 07:57:47;;;;;;;246.35;100.88;;;;;;;;;;5054649;28;20057;-85
2023/01/02 08:00:32;;;;;;;252.85;99.90;;;;;;;;;;5054014;28;20033;-85
2023/01/02 08:03:17;;;;;;;215.55;91.43;;;;;;;;;;5054311;28;20045;-85
2023/01/02 08:06:14;;;;;;;208.68;93.15;;;;;;;;;;5054569;28;20041;-88
2023/01/02 08:09:00;;;;;;;206.90;90.40;;;;;;;;;;5074494;28;20041;-88
2023/01/02 08:11:46;;;;;;;226.05;89.82;;;;;;;;;;5073904;28;20048;-88
2023/01/02 08:14:31;;;;;;;228.20;101.97;;;;;;;;;;5073869;28;20049;-84
2023/01/02 08:17:17;;;;;;;209.23;98.15;;;;;;;;;;5053982;28;20029;-84
2023/01/02 08:20:03;;;;;;;212.32;98.90;;;;;;;;;;5073677;28;20045;-84
2023/01/02 08:22:48;;;;;;;212.13;100.57;;;;;;;;;;5054252;28;20040;-89
2023/01/02 08:25:33;;;;;;;188.93;92.07;;;;;;;;;;5062533;28;20036;-88
2023/01/02 08:28:19;;;;;;;208.43;97.50;;;;;;;;;;5045222;28;20045;-88
2023/01/02 08:31:15;;;;;;;226.10;107.85;;;;;;;;;;5066741;28;20494;-85
2023/01/02 08:34:00;;;;;;;207.02;101.30;;;;;;;;;;5073382;28;20045;-84
2023/01/02 08:36:48;;;;;;;190.73;94.00;;;;;;;;;;5053687;28;20036;-89
2023/01/02 08:39:32;;;;;;;172.23;86.75;;;;;;;;;;5052819;28;20494;-89
2023/01/02 08:42:19;;;;;;;178.55;82.38;;;;;;;;;;5066564;28;20041;-85
2023/01/02 08:45:05;;;;;;;169.32;81.72;;;;;;;;;;5054174;28;20398;-84
2023/01/02 08:47:51;;;;;;;166.70;87.57;;;;;;;;;;5054150;28;20041;-89
2023/01/02 08:50:36;;;;;;;163.65;81.80;;;;;;;;;;5074233;28;20498;-85
2023/01/02 08:53:21;;;;;;;168.70;84.35;;;;;;;;;;5053523;28;20033;-83
2023/01/02 08:56:40;;;;;;;185.13;94.60;;;;;;;;;;5052460;28;20045;-89
2023/01/02 08:59:26;;;;;;;186.38;96.55;;;;;;;;;;5035959;28;20574;-85
2023/01/02 09:02:13;;;;;;;180.30;94.47;;;;;;;;;;5073257;28;20049;-90
2023/01/02 09:04:59;;;;;;;187.45;97.80;;;;;;;;;;5053805;28;20049;-82
2023/01/02 09:07:44;;;;;;;177.55;92.80;;;;;;;;;;5074016;28;20041;-87
2023/01/02 09:10:30;;;;;;;187.10;96.13;;;;;;;;;;5053467;28;20041;-77
2023/01/02 09:13:15;;;;;;;198.68;105.30;;;;;;;;;;5061636;28;20044;-77
2023/01/02 09:16:01;;;;;;;186.98;104.25;;;;;;;;;;5053223;28;20041;-77
2023/01/02 09:18:47;;;;;;;194.45;104.38;;;;;;;;;;5053049;28;20045;-77
2023/01/02 09:21:32;;;;;;;193.40;101.47;;;;;;;;;;5060037;28;20045;-77
2023/01/02 09:24:18;;;;;;;221.00;118.03;;;;;;;;;;5053280;28;20045;-80
2023/01/02 09:27:04;;;;;;;230.65;121.13;;;;;;;;;;5053437;28;20041;-78
2023/01/02 09:29:49;;;;;;;248.73;133.85;;;;;;;;;;5053479;28;20048;-78
2023/01/02 09:32:36;;;;;;;224.95;123.88;;;;;;;;;;5053135;28;20474;-80
2023/01/02 09:35:21;;;;;;;238.63;128.13;;;;;;;;;;5053062;28;20045;-79
2023/01/02 09:38:07;;;;;;;222.98;121.82;;;;;;;;;;5053178;28;20037;-81
2023/01/02 09:40:53;;;;;;;217.70;121.63;;;;;;;;;;5057024;28;20048;-77
2023/01/02 09:43:50;;;;;;;197.40;109.43;;;;;;;;;;5056872;28;20049;-77
2023/01/02 09:47:03;;;;;;;202.52;110.38;;;;;;;;;;5064086;28;20041;-80
2023/01/02 09:49:57;;;;;;;198.30;114.07;;;;;;;;;;5056811;28;20049;-80
2023/01/02 09:52:50;;;;;;;204.60;110.28;;;;;;;;;;5057305;28;20442;-80
2023/01/02 09:55:42;;;;;;;204.32;114.47;;;;;;;;;;5056687;28;20041;-78
2023/01/02 09:58:52;;;;;;;183.73;98.28;;;;;;;;;;5055947;28;20045;-78
2023/01/02 10:02:05;;;;;;;175.02;101.07;;;;;;;;;;5063257;28;20049;-79
2023/01/02 10:05:19;;;;;;;178.82;100.45;;;;;;;;;;5056628;28;20046;-79
2023/01/02 10:08:42;;;;;;;192.82;105.10;;;;;;;;;;5056633;28;20041;-77
2023/01/02 10:11:37;;;;;;;186.00;105.65;;;;;;;;;;5056247;28;20045;-78
2023/01/02 10:14:38;;;;;;;184.80;104.93;;;;;;;;;;5056480;28;20044;-80
2023/01/02 10:17:27;;;;;;;176.35;97.57;;;;;;;;;;5056198;28;20486;-78
2023/01/02 10:20:12;;;;;;;179.15;99.00;;;;;;;;;;5057417;28;20037;-78
2023/01/02 10:23:05;;;;;;;176.00;100.93;;;;;;;;;;5057950;28;20048;-81
2023/01/02 10:26:12;;;;;;;194.68;109.78;;;;;;;;;;5057566;28;20390;-81
2023/01/02 10:29:02;;;;;;;159.20;89.97;;;;;;;;;;5057423;28;20044;-79
2023/01/02 10:31:53;;;;;;;193.27;109.97;;;;;;;;;;5070109;28;20037;-81
2023/01/02 10:34:52;;;;;;;191.45;108.82;;;;;;;;;;5056560;28;20036;-82
2023/01/02 10:37:38;;;;;;;228.30;131.98;;;;;;;;;;5056908;28;20033;-81
2023/01/02 10:40:24;;;;;;;230.13;129.43;;;;;;;;;;5059693;28;20041;-84
2023/01/02 10:43:10;;;;;;;192.23;107.53;;;;;;;;;;5059659;28;20033;-85
2023/01/02 10:45:56;;;;;;;186.57;114.10;;;;;;;;;;5058474;28;20049;-85
2023/01/02 10:48:42;;;;;;;176.75;103.80;;;;;;;;;;5055703;28;20474;-81
2023/01/02 10:51:28;;;;;;;161.45;99.03;;;;;;;;;;5062286;28;20045;-79
2023/01/02 10:54:13;;;;;;;157.73;89.63;;;;;;;;;;5059361;28;20041;-84
2023/01/02 10:56:59;;;;;;;131.00;70.50;;;;;;;;;;5072988;28;20029;-81
2023/01/02 10:59:56;;;;;;;96.75;55.30;;;;;;;;;;5076972;28;20041;-81
2023/01/02 11:02:41;;;;;;;91.43;50.35;;;;;;;;;;5075432;28;20064;-80
2023/01/02 11:05:29;;;;;;;81.07;46.10;;;;;;;;;;5055344;28;20045;-80
2023/01/02 11:08:20;;;;;;;76.40;44.78;;;;;;;;;;5055620;28;20053;-81
2023/01/02 11:11:17;;;;;;;77.38;45.20;;;;;;;;;;5055341;28;20049;-80
2023/01/02 11:14:07;;;;;;;63.78;39.83;;;;;;;;;;5055179;28;20037;-80
2023/01/02 11:16:56;;;;;;;64.90;36.38;;;;;;;;;;5054283;28;20045;-81
2023/01/02 11:19:46;;;;;;;55.05;33.55;;;;;;;;;;5055183;28;20053;-84
2023/01/02 11:22:34;;;;;;;62.50;36.92;;;;;;;;;;5054119;28;20041;-84
2023/01/02 11:25:23;;;;;;;55.42;32.22;;;;;;;;;;5055863;28;20040;-82
2023/01/02 11:28:20;;;;;;;48.97;29.98;;;;;;;;;;5061356;28;20032;-80
2023/01/02 11:31:13;;;;;;;45.08;29.02;;;;;;;;;;5054318;28;20041;-81
2023/01/02 11:34:20;;;;;;;48.92;29.45;;;;;;;;;;5054938;28;20041;-79
2023/01/02 11:37:16;;;;;;;54.10;33.53;;;;;;;;;;5054652;28;20040;-79
2023/01/02 11:40:24;;;;;;;63.10;37.13;;;;;;;;;;5054338;28;20049;-78
2023/01/02 11:46:28;;;;;;;69.28;39.67;;;;;;;;;;5061232;28;20470;-78
2023/01/02 11:49:16;;;;;;;66.03;38.50;;;;;;;;;;5054542;28;20394;-79
2023/01/02 11:52:04;;;;;;;65.50;39.65;;;;;;;;;;5054721;28;20053;-81
2023/01/02 11:55:21;;;;;;;69.35;39.60;;;;;;;;;;5054671;28;20037;-82
2023/01/02 11:58:13;;;;;;;63.53;36.58;;;;;;;;;;5061168;28;20049;-82
2023/01/02 12:01:36;;;;;;;62.38;34.75;;;;;;;;;;5055165;28;20048;-80
2023/01/02 12:04:22;;;;;;;64.57;37.20;;;;;;;;;;5073964;28;20052;-85
2023/01/02 12:07:35;;;;;;;62.10;35.60;;;;;;;;;;5054540;28;20040;-83
2023/01/02 12:10:46;;;;;;;61.83;36.72;;;;;;;;;;5073162;28;20401;-84
2023/01/02 12:14:04;;;;;;;66.00;37.28;;;;;;;;;;5073572;28;20048;-84
2023/01/02 12:16:48;;;;;;;71.65;39.38;;;;;;;;;;5047860;28;20466;-84
2023/01/02 12:19:55;;;;;;;74.95;39.92;;;;;;;;;;5054523;28;20049;-84
2023/01/02 12:23:02;;;;;;;63.22;36.33;;;;;;;;;;5054279;28;20394;-84
2023/01/02 12:26:05;;;;;;;60.65;34.42;;;;;;;;;;5053500;28;20049;-83
2023/01/02 12:29:16;;;;;;;58.55;34.85;;;;;;;;;;5067072;28;20040;-83
2023/01/02 12:32:19;;;;;;;63.25;35.15;;;;;;;;;;5059413;28;20506;-83
2023/01/02 12:35:34;;;;;;;54.50;32.75;;;;;;;;;;5053755;28;20049;-83
2023/01/02 12:38:40;;;;;;;60.13;34.53;;;;;;;;;;5073324;28;20040;-83
2023/01/02 12:41:35;;;;;;;69.85;38.80;;;;;;;;;;5067048;28;20041;-83
2023/01/02 12:44:21;;;;;;;57.95;33.97;;;;;;;;;;5053828;28;20045;-83
2023/01/02 12:47:15;;;;;;;55.50;33.30;;;;;;;;;;5053765;28;20039;-85
2023/01/02 12:50:10;;;;;;;68.85;40.63;;;;;;;;;;5066876;28;20041;-84
2023/01/02 12:53:20;;;;;;;70.32;38.83;;;;;;;;;;5073135;28;20041;-83
2023/01/02 12:56:18;;;;;;;77.65;43.15;;;;;;;;;;5053127;28;20053;-84
2023/01/02 12:59:16;;;;;;;72.50;41.38;;;;;;;;;;5052748;28;20041;-84
2023/01/02 13:02:24;;;;;;;75.38;43.03;;;;;;;;;;5053533;28;20057;-84
2023/01/02 13:05:16;;;;;;;77.40;45.40;;;;;;;;;;5053537;28;20040;-84
2023/01/02 13:08:13;;;;;;;63.45;37.95;;;;;;;;;;5053276;28;20044;-83
2023/01/02 13:11:02;;;;;;;60.95;35.78;;;;;;;;;;5073413;28;20041;-84
2023/01/02 13:13:48;;;;;;;59.30;36.65;;;;;;;;;;5054203;28;20041;-84
2023/01/02 13:16:34;;;;;;;64.28;35.88;;;;;;;;;;5077085;28;20041;-83
2023/01/02 13:19:48;;;;;;;51.75;33.85;;;;;;;;;;5057626;28;20049;-83
2023/01/02 13:22:59;;;;;;;53.30;34.97;;;;;;;;;;5077195;28;20037;-83
2023/01/02 13:25:48;;;;;;;63.78;38.42;;;;;;;;;;5057737;28;20053;-83
2023/01/02 13:28:41;;;;;;;72.50;41.75;;;;;;;;;;5056517;28;20045;-83
2023/01/02 13:31:31;;;;;;;68.00;39.15;;;;;;;;;;5057177;28;20044;-83
2023/01/02 13:34:24;;;;;;;73.07;41.10;;;;;;;;;;5057404;28;20041;-84
2023/01/02 13:37:14;;;;;;;69.35;40.95;;;;;;;;;;5055771;28;20049;-83
2023/01/02 13:40:01;;;;;;;74.38;43.42;;;;;;;;;;5056289;28;20041;-83
2023/01/02 13:42:58;;;;;;;82.90;47.83;;;;;;;;;;5056981;28;20037;-83
2023/01/02 13:45:50;;;;;;;86.55;49.05;;;;;;;;;;5057129;28;20041;-84
2023/01/02 13:48:43;;;;;;;84.57;47.83;;;;;;;;;;5057177;28;20037;-84
2023/01/02 13:51:32;;;;;;;194.43;110.88;;;;;;;;;;5069761;28;20037;-83
2023/01/02 13:54:19;;;;;;;129.75;67.45;;;;;;;;;;5055701;28;20044;-83
2023/01/02 13:57:29;;;;;;;91.85;51.10;;;;;;;;;;5055731;28;20399;-84
2023/01/02 14:00:14;;;;;;;602.42;351.90;;;;;;;;;;5056951;28;20049;-84
2023/01/02 14:03:22;;;;;;;357.52;202.95;;;;;;;;;;5056495;28;20041;-83
2023/01/02 14:06:31;;;;;;;231.38;125.55;;;;;;;;;;5056678;28;20053;-84
2023/01/02 14:09:19;;;;;;;139.15;95.20;;;;;;;;;;5056548;28;20045;-83
2023/01/02 14:12:11;;;;;;;87.20;51.03;;;;;;;;;;5056248;28;20037;-85
2023/01/02 14:14:56;;;;;;;79.88;47.20;;;;;;;;;;5056126;28;20045;-84
2023/01/02 14:18:03;;;;;;;94.38;49.92;;;;;;;;;;5056231;28;20037;-83
2023/01/02 14:20:48;;;;;;;81.60;48.55;;;;;;;;;;5055502;28;20033;-83
2023/01/02 14:23:55;;;;;;;87.95;48.22;;;;;;;;;;5055215;28;20037;-83
2023/01/02 14:26:52;;;;;;;80.18;45.13;;;;;;;;;;5056578;28;20041;-85
2023/01/02 14:29:54;;;;;;;85.75;46.65;;;;;;;;;;5056207;28;20041;-83
2023/01/02 14:32:43;;;;;;;127.78;67.10;;;;;;;;;;5056104;28;20398;-83
2023/01/02 14:35:33;;;;;;;148.18;79.78;;;;;;;;;;5056388;28;20040;-83
2023/01/02 14:38:24;;;;;;;138.15;75.88;;;;;;;;;;5075431;28;20041;-83
2023/01/02 14:44:20;;;;;;;112.00;60.55;;;;;;;;;;5054137;28;20037;-82
2023/01/02 14:47:11;;;;;;;108.05;58.08;;;;;;;;;;5068903;28;20498;-82
2023/01/02 14:49:59;;;;;;;101.00;56.45;;;;;;;;;;5055587;28;20040;-82
2023/01/02 14:52:53;;;;;;;97.43;53.72;;;;;;;;;;5075774;28;20049;-82
2023/01/02 14:55:40;;;;;;;130.15;67.28;;;;;;;;;;5054550;28;20057;-83
2023/01/02 14:58:36;;;;;;;132.68;68.40;;;;;;;;;;5055588;28;20041;-84
2023/01/02 15:01:25;;;;;;;153.77;79.55;;;;;;;;;;5075520;28;20045;-84
2023/01/02 15:04:26;;;;;;;250.60;114.53;;;;;;;;;;5056016;28;20045;-83
2023/01/02 15:07:27;;;;;;;196.18;101.78;;;;;;;;;;5055627;28;20033;-84
2023/01/02 15:10:17;;;;;;;201.10;114.55;;;;;;;;;;5055895;28;20057;-83
2023/01/02 15:13:05;;;;;;;208.68;122.32;;;;;;;;;;5054734;28;20053;-85
2023/01/02 15:15:53;;;;;;;222.00;129.32;;;;;;;;;;5056258;28;20056;-84
2023/01/02 15:18:38;;;;;;;219.25;123.50;;;;;;;;;;5060825;28;20476;-84
2023/01/02 15:21:28;;;;;;;207.23;116.97;;;;;;;;;;5068037;28;20390;-83
2023/01/02 15:24:22;;;;;;;214.30;123.80;;;;;;;;;;5061074;28;20049;-83
2023/01/02 15:27:20;;;;;;;260.02;146.95;;;;;;;;;;5055531;28;20037;-84
2023/01/02 15:30:39;;;;;;;277.92;158.75;;;;;;;;;;5054617;28;20046;-83
2023/01/02 15:33:32;;;;;;;259.27;149.93;;;;;;;;;;5051022;28;20049;-84
2023/01/02 15:36:31;;;;;;;238.65;129.65;;;;;;;;;;5054238;28;20049;-83
2023/01/02 15:39:44;;;;;;;229.27;131.32;;;;;;;;;;5054901;28;20045;-83
2023/01/02 15:45:33;;;;;;;238.13;131.82;;;;;;;;;;5055087;28;20044;-84
2023/01/02 15:48:25;;;;;;;298.08;153.20;;;;;;;;;;5054774;28;20049;-83
2023/01/02 15:51:15;;;;;;;448.25;241.50;;;;;;;;;;5053669;28;20037;-84
2023/01/02 15:54:00;;;;;;;456.08;258.27;;;;;;;;;;5054541;28;20144;-82
2023/01/02 15:56:46;;;;;;;421.60;241.15;;;;;;;;;;5066844;28;20040;-82
2023/01/02 15:59:37;;;;;;;323.48;178.25;;;;;;;;;;5053687;28;20398;-82
2023/01/02 16:02:43;;;;;;;382.17;196.20;;;;;;;;;;5067350;28;20048;-82
2023/01/02 16:05:42;;;;;;;325.42;160.88;;;;;;;;;;5054267;28;20402;-83
2023/01/02 16:08:28;;;;;;;349.10;180.35;;;;;;;;;;5053702;28;20049;-84
2023/01/02 16:11:15;;;;;;;320.02;169.73;;;;;;;;;;5067285;28;20052;-85
2023/01/02 16:14:18;;;;;;;287.35;163.02;;;;;;;;;;5054331;28;20049;-83
2023/01/02 16:17:23;;;;;;;359.90;182.63;;;;;;;;;;5054173;28;20037;-83
2023/01/02 16:20:15;;;;;;;276.63;144.70;;;;;;;;;;5060864;28;20036;-83
2023/01/02 16:23:03;;;;;;;223.88;116.18;;;;;;;;;;5053693;28;20049;-83
2023/01/02 16:25:49;;;;;;;213.35;113.53;;;;;;;;;;5052949;28;20049;-82
2023/01/02 16:28:39;;;;;;;214.07;119.50;;;;;;;;;;5066970;28;20081;-84
2023/01/02 16:31:24;;;;;;;207.68;117.50;;;;;;;;;;5059531;28;20053;-83